sensor_id;sensor_type;location;lat;lon;timestamp;temperature;humidity
64997;SHT31;51545;51.568;6.998;2023-11-22T00:01:57;5.65;93.75
64997;SHT31;51545;51.568;6.998;2023-11-22T00:04:26;5.68;94.31
64997;SHT31;51545;51.568;6.998;2023-11-22T00:07:06;5.65;93.85
64997;SHT31;51545;51.568;6.998;2023-11-22T00:09:40;5.67;93.89
64997;SHT31;51545;51.568;6.998;2023-11-22T00:12:10;5.68;93.86
64997;SHT31;51545;51.568;6.998;2023-11-22T00:14:49;5.62;93.50
64997;SHT31;51545;51.568;6.998;2023-11-22T00:17:18;5.64;93.05
64997;SHT31;51545;51.568;6.998;2023-11-22T00:19:48;5.60;92.88
64997;SHT31;51545;51.568;6.998;2023-11-22T00:22:24;5.54;93.10
64997;SHT31;51545;51.568;6.998;2023-11-22T00:25:01;5.52;92.63
64997;SHT31;51545;51.568;6.998;2023-11-22T00:27:30;5.51;92.96
64997;SHT31;51545;51.568;6.998;2023-11-22T00:30:03;5.43;92.88
64997;SHT31;51545;51.568;6.998;2023-11-22T00:32:35;5.37;93.15
64997;SHT31;51545;51.568;6.998;2023-11-22T00:35:10;5.28;92.79
64997;SHT31;51545;51.568;6.998;2023-11-22T00:37:42;5.27;92.99
64997;SHT31;51545;51.568;6.998;2023-11-22T00:40:11;5.22;93.52
64997;SHT31;51545;51.568;6.998;2023-11-22T00:42:40;5.07;93.71
64997;SHT31;51545;51.568;6.998;2023-11-22T00:45:13;5.10;93.33
64997;SHT31;51545;51.568;6.998;2023-11-22T00:47:42;5.02;93.65
64997;SHT31;51545;51.568;6.998;2023-11-22T00:50:11;4.99;93.65
64997;SHT31;51545;51.568;6.998;2023-11-22T00:52:49;4.95;93.97
64997;SHT31;51545;51.568;6.998;2023-11-22T00:55:18;4.97;94.26
64997;SHT31;51545;51.568;6.998;2023-11-22T00:57:45;4.88;94.31
64997;SHT31;51545;51.568;6.998;2023-11-22T01:00:14;4.84;94.39
64997;SHT31;51545;51.568;6.998;2023-11-22T01:02:49;4.85;94.54
64997;SHT31;51545;51.568;6.998;2023-11-22T01:05:18;4.85;94.73
64997;SHT31;51545;51.568;6.998;2023-11-22T01:07:49;4.77;94.98
64997;SHT31;51545;51.568;6.998;2023-11-22T01:10:20;4.81;95.00
64997;SHT31;51545;51.568;6.998;2023-11-22T01:12:49;4.81;94.92
64997;SHT31;51545;51.568;6.998;2023-11-22T01:15:18;4.74;95.16
64997;SHT31;51545;51.568;6.998;2023-11-22T01:17:55;4.72;95.24
64997;SHT31;51545;51.568;6.998;2023-11-22T01:20:24;4.69;95.47
64997;SHT31;51545;51.568;6.998;2023-11-22T01:22:58;4.74;95.50
64997;SHT31;51545;51.568;6.998;2023-11-22T01:25:29;4.69;95.55
64997;SHT31;51545;51.568;6.998;2023-11-22T01:28:00;4.61;95.67
64997;SHT31;51545;51.568;6.998;2023-11-22T01:30:28;4.61;95.96
64997;SHT31;51545;51.568;6.998;2023-11-22T01:32:59;4.62;95.97
64997;SHT31;51545;51.568;6.998;2023-11-22T01:35:30;4.58;96.17
64997;SHT31;51545;51.568;6.998;2023-11-22T01:38:04;4.61;96.13
64997;SHT31;51545;51.568;6.998;2023-11-22T01:40:34;4.64;96.17
64997;SHT31;51545;51.568;6.998;2023-11-22T01:43:17;4.50;96.29
64997;SHT31;51545;51.568;6.998;2023-11-22T01:45:56;4.47;96.45
64997;SHT31;51545;51.568;6.998;2023-11-22T01:48:32;4.36;96.65
64997;SHT31;51545;51.568;6.998;2023-11-22T01:51:11;4.46;96.80
64997;SHT31;51545;51.568;6.998;2023-11-22T01:53:39;4.54;96.84
64997;SHT31;51545;51.568;6.998;2023-11-22T01:56:08;4.51;96.97
64997;SHT31;51545;51.568;6.998;2023-11-22T01:58:37;4.40;96.93
64997;SHT31;51545;51.568;6.998;2023-11-22T02:01:03;4.44;96.95
64997;SHT31;51545;51.568;6.998;2023-11-22T02:03:30;4.43;96.95
64997;SHT31;51545;51.568;6.998;2023-11-22T02:05:56;4.44;97.00
64997;SHT31;51545;51.568;6.998;2023-11-22T02:08:22;4.44;97.15
64997;SHT31;51545;51.568;6.998;2023-11-22T02:10:59;4.41;97.16
64997;SHT31;51545;51.568;6.998;2023-11-22T02:13:30;4.46;97.08
64997;SHT31;51545;51.568;6.998;2023-11-22T02:15:56;4.43;97.08
64997;SHT31;51545;51.568;6.998;2023-11-22T02:18:26;4.29;97.17
64997;SHT31;51545;51.568;6.998;2023-11-22T02:20:52;4.17;97.42
64997;SHT31;51545;51.568;6.998;2023-11-22T02:23:18;4.13;97.71
64997;SHT31;51545;51.568;6.998;2023-11-22T02:25:44;4.10;97.87
64997;SHT31;51545;51.568;6.998;2023-11-22T02:28:14;4.03;98.02
64997;SHT31;51545;51.568;6.998;2023-11-22T02:30:40;3.94;98.03
64997;SHT31;51545;51.568;6.998;2023-11-22T02:33:07;3.86;98.24
64997;SHT31;51545;51.568;6.998;2023-11-22T02:35:33;3.89;98.59
64997;SHT31;51545;51.568;6.998;2023-11-22T02:37:59;3.98;98.71
64997;SHT31;51545;51.568;6.998;2023-11-22T02:40:26;4.09;98.50
64997;SHT31;51545;51.568;6.998;2023-11-22T02:42:54;4.05;98.24
64997;SHT31;51545;51.568;6.998;2023-11-22T02:45:26;4.06;98.24
64997;SHT31;51545;51.568;6.998;2023-11-22T02:47:53;4.05;98.27
64997;SHT31;51545;51.568;6.998;2023-11-22T02:50:19;4.03;98.44
64997;SHT31;51545;51.568;6.998;2023-11-22T02:52:45;3.98;98.44
64997;SHT31;51545;51.568;6.998;2023-11-22T02:55:11;3.94;98.54
64997;SHT31;51545;51.568;6.998;2023-11-22T02:57:38;3.82;98.63
64997;SHT31;51545;51.568;6.998;2023-11-22T03:00:06;3.82;98.73
64997;SHT31;51545;51.568;6.998;2023-11-22T03:02:34;3.78;98.89
64997;SHT31;51545;51.568;6.998;2023-11-22T03:05:00;3.66;98.91
64997;SHT31;51545;51.568;6.998;2023-11-22T03:07:26;3.66;99.10
64997;SHT31;51545;51.568;6.998;2023-11-22T03:09:53;3.60;99.06
64997;SHT31;51545;51.568;6.998;2023-11-22T03:12:19;3.63;99.18
64997;SHT31;51545;51.568;6.998;2023-11-22T03:14:48;3.56;99.14
64997;SHT31;51545;51.568;6.998;2023-11-22T03:17:14;3.56;99.19
64997;SHT31;51545;51.568;6.998;2023-11-22T03:19:40;3.50;99.22
64997;SHT31;51545;51.568;6.998;2023-11-22T03:22:06;3.58;99.26
64997;SHT31;51545;51.568;6.998;2023-11-22T03:24:33;3.56;99.16
64997;SHT31;51545;51.568;6.998;2023-11-22T03:27:03;3.51;99.28
64997;SHT31;51545;51.568;6.998;2023-11-22T03:29:29;3.44;99.23
64997;SHT31;51545;51.568;6.998;2023-11-22T03:31:55;3.47;99.28
64997;SHT31;51545;51.568;6.998;2023-11-22T03:34:21;3.43;99.30
64997;SHT31;51545;51.568;6.998;2023-11-22T03:36:47;3.43;99.32
64997;SHT31;51545;51.568;6.998;2023-11-22T03:39:15;3.42;99.31
64997;SHT31;51545;51.568;6.998;2023-11-22T03:41:41;3.33;99.31
64997;SHT31;51545;51.568;6.998;2023-11-22T03:44:08;3.32;99.30
64997;SHT31;51545;51.568;6.998;2023-11-22T03:46:35;3.33;99.27
64997;SHT31;51545;51.568;6.998;2023-11-22T03:49:05;3.29;99.15
64997;SHT31;51545;51.568;6.998;2023-11-22T03:51:32;3.22;99.05
64997;SHT31;51545;51.568;6.998;2023-11-22T03:53:59;3.16;99.05
64997;SHT31;51545;51.568;6.998;2023-11-22T03:56:25;3.19;99.15
64997;SHT31;51545;51.568;6.998;2023-11-22T03:58:51;3.09;99.05
64997;SHT31;51545;51.568;6.998;2023-11-22T04:01:18;3.13;99.07
64997;SHT31;51545;51.568;6.998;2023-11-22T04:03:48;3.20;98.90
64997;SHT31;51545;51.568;6.998;2023-11-22T04:06:15;3.06;98.78
64997;SHT31;51545;51.568;6.998;2023-11-22T04:08:44;2.98;98.90
64997;SHT31;51545;51.568;6.998;2023-11-22T04:11:12;2.98;98.90
64997;SHT31;51545;51.568;6.998;2023-11-22T04:13:38;2.99;98.91
64997;SHT31;51545;51.568;6.998;2023-11-22T04:16:07;2.99;98.86
64997;SHT31;51545;51.568;6.998;2023-11-22T04:18:39;2.95;98.88
64997;SHT31;51545;51.568;6.998;2023-11-22T04:21:06;2.91;98.77
64997;SHT31;51545;51.568;6.998;2023-11-22T04:23:33;2.88;98.72
64997;SHT31;51545;51.568;6.998;2023-11-22T04:25:59;2.87;98.73
64997;SHT31;51545;51.568;6.998;2023-11-22T04:28:27;2.84;98.63
64997;SHT31;51545;51.568;6.998;2023-11-22T04:30:56;2.84;98.68
64997;SHT31;51545;51.568;6.998;2023-11-22T04:33:23;2.80;98.74
64997;SHT31;51545;51.568;6.998;2023-11-22T04:35:50;2.75;98.69
64997;SHT31;51545;51.568;6.998;2023-11-22T04:38:16;2.70;98.73
64997;SHT31;51545;51.568;6.998;2023-11-22T04:40:43;2.68;98.70
64997;SHT31;51545;51.568;6.998;2023-11-22T04:43:10;2.73;98.68
64997;SHT31;51545;51.568;6.998;2023-11-22T04:45:36;2.74;98.67
64997;SHT31;51545;51.568;6.998;2023-11-22T04:48:03;2.77;98.35
64997;SHT31;51545;51.568;6.998;2023-11-22T04:50:30;2.74;98.20
64997;SHT31;51545;51.568;6.998;2023-11-22T04:52:56;2.68;98.21
64997;SHT31;51545;51.568;6.998;2023-11-22T04:55:22;2.63;98.26
64997;SHT31;51545;51.568;6.998;2023-11-22T04:57:51;2.56;98.29
64997;SHT31;51545;51.568;6.998;2023-11-22T05:00:19;2.56;98.39
64997;SHT31;51545;51.568;6.998;2023-11-22T05:02:48;2.52;98.35
64997;SHT31;51545;51.568;6.998;2023-11-22T05:05:14;2.47;98.63
64997;SHT31;51545;51.568;6.998;2023-11-22T05:07:46;2.49;98.57
64997;SHT31;51545;51.568;6.998;2023-11-22T05:10:14;2.47;98.51
64997;SHT31;51545;51.568;6.998;2023-11-22T05:12:41;2.52;98.60
64997;SHT31;51545;51.568;6.998;2023-11-22T05:15:08;2.39;98.50
64997;SHT31;51545;51.568;6.998;2023-11-22T05:17:34;2.45;98.66
64997;SHT31;51545;51.568;6.998;2023-11-22T05:20:01;2.36;98.62
64997;SHT31;51545;51.568;6.998;2023-11-22T05:22:27;2.39;98.71
64997;SHT31;51545;51.568;6.998;2023-11-22T05:24:53;2.42;98.72
64997;SHT31;51545;51.568;6.998;2023-11-22T05:27:19;2.35;98.64
64997;SHT31;51545;51.568;6.998;2023-11-22T05:29:45;2.32;98.68
64997;SHT31;51545;51.568;6.998;2023-11-22T05:32:11;2.35;98.91
64997;SHT31;51545;51.568;6.998;2023-11-22T05:34:37;2.33;98.78
64997;SHT31;51545;51.568;6.998;2023-11-22T05:37:06;2.30;99.00
64997;SHT31;51545;51.568;6.998;2023-11-22T05:39:32;2.18;98.93
64997;SHT31;51545;51.568;6.998;2023-11-22T05:41:58;2.18;99.00
64997;SHT31;51545;51.568;6.998;2023-11-22T05:44:24;2.15;99.09
64997;SHT31;51545;51.568;6.998;2023-11-22T05:46:51;2.11;99.10
64997;SHT31;51545;51.568;6.998;2023-11-22T05:49:17;2.18;99.18
64997;SHT31;51545;51.568;6.998;2023-11-22T05:51:43;2.20;99.16
64997;SHT31;51545;51.568;6.998;2023-11-22T05:54:09;2.12;99.17
64997;SHT31;51545;51.568;6.998;2023-11-22T05:56:38;2.06;99.20
64997;SHT31;51545;51.568;6.998;2023-11-22T05:59:04;2.09;99.37
64997;SHT31;51545;51.568;6.998;2023-11-22T06:01:30;2.08;99.33
64997;SHT31;51545;51.568;6.998;2023-11-22T06:03:56;2.01;99.39
64997;SHT31;51545;51.568;6.998;2023-11-22T06:06:22;2.01;99.48
64997;SHT31;51545;51.568;6.998;2023-11-22T06:08:48;1.94;99.57
64997;SHT31;51545;51.568;6.998;2023-11-22T06:11:14;1.83;99.50
64997;SHT31;51545;51.568;6.998;2023-11-22T06:13:44;1.74;99.50
64997;SHT31;51545;51.568;6.998;2023-11-22T06:16:12;1.67;99.69
64997;SHT31;51545;51.568;6.998;2023-11-22T06:18:38;1.49;99.51
64997;SHT31;51545;51.568;6.998;2023-11-22T06:21:06;1.34;99.42
64997;SHT31;51545;51.568;6.998;2023-11-22T06:23:33;1.22;99.48
64997;SHT31;51545;51.568;6.998;2023-11-22T06:25:59;1.26;99.87
64997;SHT31;51545;51.568;6.998;2023-11-22T06:28:25;1.15;99.90
64997;SHT31;51545;51.568;6.998;2023-11-22T06:30:52;1.09;99.77
64997;SHT31;51545;51.568;6.998;2023-11-22T06:33:18;0.95;99.71
64997;SHT31;51545;51.568;6.998;2023-11-22T06:35:45;0.84;99.63
64997;SHT31;51545;51.568;6.998;2023-11-22T06:38:11;0.74;99.61
64997;SHT31;51545;51.568;6.998;2023-11-22T06:40:37;0.69;99.63
64997;SHT31;51545;51.568;6.998;2023-11-22T06:43:03;0.64;99.68
64997;SHT31;51545;51.568;6.998;2023-11-22T06:45:32;0.60;99.75
64997;SHT31;51545;51.568;6.998;2023-11-22T06:47:58;0.59;99.75
64997;SHT31;51545;51.568;6.998;2023-11-22T06:50:24;0.63;99.86
64997;SHT31;51545;51.568;6.998;2023-11-22T06:52:50;0.67;99.99
64997;SHT31;51545;51.568;6.998;2023-11-22T06:55:18;0.62;99.99
64997;SHT31;51545;51.568;6.998;2023-11-22T06:57:44;0.60;99.99
64997;SHT31;51545;51.568;6.998;2023-11-22T07:00:13;0.59;99.99
64997;SHT31;51545;51.568;6.998;2023-11-22T07:02:42;0.57;99.99
64997;SHT31;51545;51.568;6.998;2023-11-22T07:05:07;0.52;99.98
64997;SHT31;51545;51.568;6.998;2023-11-22T07:07:35;0.57;99.99
64997;SHT31;51545;51.568;6.998;2023-11-22T07:10:02;0.57;99.99
64997;SHT31;51545;51.568;6.998;2023-11-22T07:12:31;0.57;99.99
64997;SHT31;51545;51.568;6.998;2023-11-22T07:14:57;0.52;99.99
64997;SHT31;51545;51.568;6.998;2023-11-22T07:17:25;0.55;99.99
64997;SHT31;51545;51.568;6.998;2023-11-22T07:19:54;0.55;99.99
64997;SHT31;51545;51.568;6.998;2023-11-22T07:22:20;0.57;99.99
64997;SHT31;51545;51.568;6.998;2023-11-22T07:24:49;0.50;99.99
64997;SHT31;51545;51.568;6.998;2023-11-22T07:27:20;0.56;99.99
64997;SHT31;51545;51.568;6.998;2023-11-22T07:29:47;0.69;99.99
64997;SHT31;51545;51.568;6.998;2023-11-22T07:32:13;0.77;99.99
64997;SHT31;51545;51.568;6.998;2023-11-22T07:34:40;0.83;99.99
64997;SHT31;51545;51.568;6.998;2023-11-22T07:37:07;0.87;99.99
64997;SHT31;51545;51.568;6.998;2023-11-22T07:39:34;1.00;99.99
64997;SHT31;51545;51.568;6.998;2023-11-22T07:42:02;1.08;99.99
64997;SHT31;51545;51.568;6.998;2023-11-22T07:44:28;1.09;99.99
64997;SHT31;51545;51.568;6.998;2023-11-22T07:46:58;1.11;99.99
64997;SHT31;51545;51.568;6.998;2023-11-22T07:49:25;1.26;99.99
64997;SHT31;51545;51.568;6.998;2023-11-22T07:51:52;1.47;99.99
64997;SHT31;51545;51.568;6.998;2023-11-22T07:54:21;1.56;99.99
64997;SHT31;51545;51.568;6.998;2023-11-22T07:56:51;1.70;99.99
64997;SHT31;51545;51.568;6.998;2023-11-22T07:59:18;1.83;99.99
64997;SHT31;51545;51.568;6.998;2023-11-22T08:01:45;1.94;99.51
64997;SHT31;51545;51.568;6.998;2023-11-22T08:04:13;2.03;99.18
64997;SHT31;51545;51.568;6.998;2023-11-22T08:06:40;2.11;98.69
64997;SHT31;51545;51.568;6.998;2023-11-22T08:09:06;2.12;98.12
64997;SHT31;51545;51.568;6.998;2023-11-22T08:11:35;2.16;97.81
64997;SHT31;51545;51.568;6.998;2023-11-22T08:14:02;2.22;97.52
64997;SHT31;51545;51.568;6.998;2023-11-22T08:16:29;2.23;97.27
64997;SHT31;51545;51.568;6.998;2023-11-22T08:18:55;2.29;97.20
64997;SHT31;51545;51.568;6.998;2023-11-22T08:21:22;2.39;97.07
64997;SHT31;51545;51.568;6.998;2023-11-22T08:23:49;2.47;97.29
64997;SHT31;51545;51.568;6.998;2023-11-22T08:26:15;2.49;96.77
64997;SHT31;51545;51.568;6.998;2023-11-22T08:28:44;2.54;96.67
64997;SHT31;51545;51.568;6.998;2023-11-22T08:31:10;2.66;96.90
64997;SHT31;51545;51.568;6.998;2023-11-22T08:33:38;2.70;95.75
64997;SHT31;51545;51.568;6.998;2023-11-22T08:36:08;2.75;94.83
64997;SHT31;51545;51.568;6.998;2023-11-22T08:38:35;2.87;94.48
64997;SHT31;51545;51.568;6.998;2023-11-22T08:41:02;2.95;93.85
64997;SHT31;51545;51.568;6.998;2023-11-22T08:43:30;3.09;94.06
64997;SHT31;51545;51.568;6.998;2023-11-22T08:45:58;3.19;93.56
64997;SHT31;51545;51.568;6.998;2023-11-22T08:48:25;3.16;92.86
64997;SHT31;51545;51.568;6.998;2023-11-22T08:50:53;3.19;91.88
64997;SHT31;51545;51.568;6.998;2023-11-22T08:53:25;3.23;91.61
64997;SHT31;51545;51.568;6.998;2023-11-22T08:55:51;3.23;90.98
64997;SHT31;51545;51.568;6.998;2023-11-22T08:58:20;3.20;90.23
64997;SHT31;51545;51.568;6.998;2023-11-22T09:00:48;3.33;90.47
64997;SHT31;51545;51.568;6.998;2023-11-22T09:03:14;3.44;90.65
64997;SHT31;51545;51.568;6.998;2023-11-22T09:05:43;3.47;89.99
64997;SHT31;51545;51.568;6.998;2023-11-22T09:08:09;3.63;90.30
64997;SHT31;51545;51.568;6.998;2023-11-22T09:10:44;3.67;89.25
64997;SHT31;51545;51.568;6.998;2023-11-22T09:13:11;3.77;88.72
64997;SHT31;51545;51.568;6.998;2023-11-22T09:15:42;3.78;87.76
64997;SHT31;51545;51.568;6.998;2023-11-22T09:18:10;3.98;88.33
64997;SHT31;51545;51.568;6.998;2023-11-22T09:20:38;4.07;87.50
64997;SHT31;51545;51.568;6.998;2023-11-22T09:23:04;4.16;86.15
64997;SHT31;51545;51.568;6.998;2023-11-22T09:25:30;4.17;86.51
64997;SHT31;51545;51.568;6.998;2023-11-22T09:27:58;4.15;85.59
64997;SHT31;51545;51.568;6.998;2023-11-22T09:30:25;4.06;83.88
64997;SHT31;51545;51.568;6.998;2023-11-22T09:33:09;4.29;85.33
64997;SHT31;51545;51.568;6.998;2023-11-22T09:35:43;4.22;84.68
64997;SHT31;51545;51.568;6.998;2023-11-22T09:38:13;4.19;83.94
64997;SHT31;51545;51.568;6.998;2023-11-22T09:43:11;4.46;85.59
64997;SHT31;51545;51.568;6.998;2023-11-22T09:45:40;4.46;84.10
64997;SHT31;51545;51.568;6.998;2023-11-22T09:48:16;4.61;85.30
64997;SHT31;51545;51.568;6.998;2023-11-22T09:50:50;4.47;81.61
64997;SHT31;51545;51.568;6.998;2023-11-22T09:53:32;4.44;81.82
64997;SHT31;51545;51.568;6.998;2023-11-22T09:56:01;4.49;81.78
64997;SHT31;51545;51.568;6.998;2023-11-22T09:58:29;4.57;81.01
64997;SHT31;51545;51.568;6.998;2023-11-22T10:01:02;4.68;80.93
64997;SHT31;51545;51.568;6.998;2023-11-22T10:03:30;4.69;81.13
64997;SHT31;51545;51.568;6.998;2023-11-22T10:05:57;4.56;80.46
64997;SHT31;51545;51.568;6.998;2023-11-22T10:08:27;4.61;81.55
64997;SHT31;51545;51.568;6.998;2023-11-22T10:10:55;4.68;81.32
64997;SHT31;51545;51.568;6.998;2023-11-22T10:13:22;4.72;80.87
64997;SHT31;51545;51.568;6.998;2023-11-22T10:15:49;4.71;80.33
64997;SHT31;51545;51.568;6.998;2023-11-22T10:18:16;4.82;81.29
64997;SHT31;51545;51.568;6.998;2023-11-22T10:20:44;4.81;81.04
64997;SHT31;51545;51.568;6.998;2023-11-22T10:23:16;4.74;80.64
64997;SHT31;51545;51.568;6.998;2023-11-22T10:25:50;4.74;80.51
64997;SHT31;51545;51.568;6.998;2023-11-22T10:28:19;4.85;80.61
64997;SHT31;51545;51.568;6.998;2023-11-22T10:30:46;4.81;80.47
64997;SHT31;51545;51.568;6.998;2023-11-22T10:33:16;4.93;80.24
64997;SHT31;51545;51.568;6.998;2023-11-22T10:35:48;5.02;80.73
64997;SHT31;51545;51.568;6.998;2023-11-22T10:38:16;5.10;81.53
64997;SHT31;51545;51.568;6.998;2023-11-22T10:40:44;5.06;80.33
64997;SHT31;51545;51.568;6.998;2023-11-22T10:43:11;5.12;80.37
64997;SHT31;51545;51.568;6.998;2023-11-22T10:45:38;5.24;80.66
64997;SHT31;51545;51.568;6.998;2023-11-22T10:48:07;5.13;78.96
64997;SHT31;51545;51.568;6.998;2023-11-22T10:50:35;5.19;77.99
64997;SHT31;51545;51.568;6.998;2023-11-22T10:53:03;5.41;79.21
64997;SHT31;51545;51.568;6.998;2023-11-22T10:55:35;5.30;76.00
64997;SHT31;51545;51.568;6.998;2023-11-22T10:58:07;5.28;75.41
64997;SHT31;51545;51.568;6.998;2023-11-22T11:00:36;5.31;75.36
64997;SHT31;51545;51.568;6.998;2023-11-22T11:03:18;5.51;74.94
64997;SHT31;51545;51.568;6.998;2023-11-22T11:06:01;5.68;76.98
64997;SHT31;51545;51.568;6.998;2023-11-22T11:08:33;5.60;76.37
64997;SHT31;51545;51.568;6.998;2023-11-22T11:11:04;5.75;75.18
64997;SHT31;51545;51.568;6.998;2023-11-22T11:13:31;5.64;73.67
64997;SHT31;51545;51.568;6.998;2023-11-22T11:15:57;5.41;71.94
64997;SHT31;51545;51.568;6.998;2023-11-22T11:18:25;5.67;74.69
64997;SHT31;51545;51.568;6.998;2023-11-22T11:20:57;5.67;75.37
64997;SHT31;51545;51.568;6.998;2023-11-22T11:23:25;5.67;75.14
64997;SHT31;51545;51.568;6.998;2023-11-22T11:25:53;5.55;73.45
64997;SHT31;51545;51.568;6.998;2023-11-22T11:28:21;5.75;75.51
64997;SHT31;51545;51.568;6.998;2023-11-22T11:30:52;5.67;73.38
64997;SHT31;51545;51.568;6.998;2023-11-22T11:35:58;5.74;73.45
64997;SHT31;51545;51.568;6.998;2023-11-22T11:38:36;5.61;73.51
64997;SHT31;51545;51.568;6.998;2023-11-22T11:41:09;5.47;71.48
64997;SHT31;51545;51.568;6.998;2023-11-22T11:43:40;5.69;70.80
64997;SHT31;51545;51.568;6.998;2023-11-22T11:46:16;5.77;70.31
64997;SHT31;51545;51.568;6.998;2023-11-22T11:48:43;5.79;69.78
64997;SHT31;51545;51.568;6.998;2023-11-22T11:51:44;5.85;70.89
64997;SHT31;51545;51.568;6.998;2023-11-22T11:54:04;5.99;72.21
64997;SHT31;51545;51.568;6.998;2023-11-22T11:56:31;5.96;72.35
64997;SHT31;51545;51.568;6.998;2023-11-22T11:58:59;5.81;72.99
64997;SHT31;51545;51.568;6.998;2023-11-22T12:01:29;5.58;73.61
64997;SHT31;51545;51.568;6.998;2023-11-22T12:03:57;5.44;74.57
64997;SHT31;51545;51.568;6.998;2023-11-22T12:06:26;5.27;75.52
64997;SHT31;51545;51.568;6.998;2023-11-22T12:08:54;5.16;76.91
64997;SHT31;51545;51.568;6.998;2023-11-22T12:11:20;5.06;77.83
64997;SHT31;51545;51.568;6.998;2023-11-22T12:13:46;5.03;77.20
64997;SHT31;51545;51.568;6.998;2023-11-22T12:16:16;5.05;78.51
64997;SHT31;51545;51.568;6.998;2023-11-22T12:18:46;5.10;76.50
64997;SHT31;51545;51.568;6.998;2023-11-22T12:21:14;5.12;76.49
64997;SHT31;51545;51.568;6.998;2023-11-22T12:23:42;5.15;75.57
64997;SHT31;51545;51.568;6.998;2023-11-22T12:26:09;5.17;76.01
64997;SHT31;51545;51.568;6.998;2023-11-22T12:28:38;5.17;75.25
64997;SHT31;51545;51.568;6.998;2023-11-22T12:31:09;5.17;75.05
64997;SHT31;51545;51.568;6.998;2023-11-22T12:33:36;5.26;75.78
64997;SHT31;51545;51.568;6.998;2023-11-22T12:36:03;5.33;76.80
64997;SHT31;51545;51.568;6.998;2023-11-22T12:38:30;5.44;75.89
64997;SHT31;51545;51.568;6.998;2023-11-22T12:40:58;5.45;75.78
64997;SHT31;51545;51.568;6.998;2023-11-22T12:43:25;5.50;73.05
64997;SHT31;51545;51.568;6.998;2023-11-22T12:46:01;5.60;73.60
64997;SHT31;51545;51.568;6.998;2023-11-22T12:48:39;5.69;72.28
64997;SHT31;51545;51.568;6.998;2023-11-22T12:51:16;5.61;71.90
64997;SHT31;51545;51.568;6.998;2023-11-22T12:53:48;5.48;71.66
64997;SHT31;51545;51.568;6.998;2023-11-22T12:56:15;5.47;70.94
64997;SHT31;51545;51.568;6.998;2023-11-22T12:58:42;5.45;71.38
64997;SHT31;51545;51.568;6.998;2023-11-22T13:01:08;5.62;73.66
64997;SHT31;51545;51.568;6.998;2023-11-22T13:03:34;5.61;72.12
64997;SHT31;51545;51.568;6.998;2023-11-22T13:06:00;5.75;72.56
64997;SHT31;51545;51.568;6.998;2023-11-22T13:08:27;5.88;73.28
64997;SHT31;51545;51.568;6.998;2023-11-22T13:10:55;6.00;72.08
64997;SHT31;51545;51.568;6.998;2023-11-22T13:13:24;6.03;71.73
64997;SHT31;51545;51.568;6.998;2023-11-22T13:15:52;6.05;72.02
64997;SHT31;51545;51.568;6.998;2023-11-22T13:18:18;5.88;72.23
64997;SHT31;51545;51.568;6.998;2023-11-22T13:20:44;6.06;72.80
64997;SHT31;51545;51.568;6.998;2023-11-22T13:23:11;6.24;73.19
64997;SHT31;51545;51.568;6.998;2023-11-22T13:25:39;6.07;72.03
64997;SHT31;51545;51.568;6.998;2023-11-22T13:28:07;5.93;71.37
64997;SHT31;51545;51.568;6.998;2023-11-22T13:30:34;5.93;71.59
64997;SHT31;51545;51.568;6.998;2023-11-22T13:33:00;5.99;70.68
64997;SHT31;51545;51.568;6.998;2023-11-22T13:35:28;5.98;69.96
64997;SHT31;51545;51.568;6.998;2023-11-22T13:37:57;5.95;69.63
64997;SHT31;51545;51.568;6.998;2023-11-22T13:40:24;5.98;68.92
64997;SHT31;51545;51.568;6.998;2023-11-22T13:42:56;5.96;68.90
64997;SHT31;51545;51.568;6.998;2023-11-22T13:45:23;6.05;70.69
64997;SHT31;51545;51.568;6.998;2023-11-22T13:47:50;6.07;68.34
64997;SHT31;51545;51.568;6.998;2023-11-22T13:50:25;6.05;68.54
64997;SHT31;51545;51.568;6.998;2023-11-22T13:52:52;6.11;69.83
64997;SHT31;51545;51.568;6.998;2023-11-22T13:55:19;6.07;69.44
64997;SHT31;51545;51.568;6.998;2023-11-22T13:57:52;6.10;70.97
64997;SHT31;51545;51.568;6.998;2023-11-22T14:00:20;6.05;69.41
64997;SHT31;51545;51.568;6.998;2023-11-22T14:02:52;6.09;70.82
64997;SHT31;51545;51.568;6.998;2023-11-22T14:05:23;6.03;70.65
64997;SHT31;51545;51.568;6.998;2023-11-22T14:07:49;6.13;72.73
64997;SHT31;51545;51.568;6.998;2023-11-22T14:10:17;6.14;73.51
64997;SHT31;51545;51.568;6.998;2023-11-22T14:12:44;6.11;72.67
64997;SHT31;51545;51.568;6.998;2023-11-22T14:15:12;6.18;73.51
64997;SHT31;51545;51.568;6.998;2023-11-22T14:17:38;6.14;74.46
64997;SHT31;51545;51.568;6.998;2023-11-22T14:20:07;6.16;74.85
64997;SHT31;51545;51.568;6.998;2023-11-22T14:22:36;6.14;72.81
64997;SHT31;51545;51.568;6.998;2023-11-22T14:25:18;6.11;73.67
64997;SHT31;51545;51.568;6.998;2023-11-22T14:27:46;6.13;72.70
64997;SHT31;51545;51.568;6.998;2023-11-22T14:30:18;6.09;73.12
64997;SHT31;51545;51.568;6.998;2023-11-22T14:32:47;6.09;72.80
64997;SHT31;51545;51.568;6.998;2023-11-22T14:35:14;5.95;71.27
64997;SHT31;51545;51.568;6.998;2023-11-22T14:37:43;5.99;71.21
64997;SHT31;51545;51.568;6.998;2023-11-22T14:40:10;5.93;71.28
64997;SHT31;51545;51.568;6.998;2023-11-22T14:42:42;5.90;72.85
64997;SHT31;51545;51.568;6.998;2023-11-22T14:45:14;5.92;71.49
64997;SHT31;51545;51.568;6.998;2023-11-22T14:47:40;5.96;71.43
64997;SHT31;51545;51.568;6.998;2023-11-22T14:50:11;5.86;71.23
64997;SHT31;51545;51.568;6.998;2023-11-22T14:52:40;5.89;70.39
64997;SHT31;51545;51.568;6.998;2023-11-22T14:55:06;5.88;70.40
64997;SHT31;51545;51.568;6.998;2023-11-22T14:57:36;5.83;71.85
64997;SHT31;51545;51.568;6.998;2023-11-22T15:00:03;5.82;70.91
64997;SHT31;51545;51.568;6.998;2023-11-22T15:02:39;5.82;71.70
64997;SHT31;51545;51.568;6.998;2023-11-22T15:05:08;5.81;71.76
64997;SHT31;51545;51.568;6.998;2023-11-22T15:07:35;5.77;71.35
64997;SHT31;51545;51.568;6.998;2023-11-22T15:10:07;5.77;73.16
64997;SHT31;51545;51.568;6.998;2023-11-22T15:12:35;5.72;71.77
64997;SHT31;51545;51.568;6.998;2023-11-22T15:15:02;5.69;71.93
64997;SHT31;51545;51.568;6.998;2023-11-22T15:17:28;5.71;72.05
64997;SHT31;51545;51.568;6.998;2023-11-22T15:19:56;5.69;71.27
64997;SHT31;51545;51.568;6.998;2023-11-22T15:22:27;5.69;73.78
64997;SHT31;51545;51.568;6.998;2023-11-22T15:24:53;5.64;72.83
64997;SHT31;51545;51.568;6.998;2023-11-22T15:27:20;5.65;73.95
64997;SHT31;51545;51.568;6.998;2023-11-22T15:29:48;5.58;72.67
64997;SHT31;51545;51.568;6.998;2023-11-22T15:32:14;5.61;73.34
64997;SHT31;51545;51.568;6.998;2023-11-22T15:34:45;5.55;72.89
64997;SHT31;51545;51.568;6.998;2023-11-22T15:37:12;5.55;73.71
64997;SHT31;51545;51.568;6.998;2023-11-22T15:39:39;5.57;74.08
64997;SHT31;51545;51.568;6.998;2023-11-22T15:42:06;5.54;73.25
64997;SHT31;51545;51.568;6.998;2023-11-22T15:44:33;5.57;72.91
64997;SHT31;51545;51.568;6.998;2023-11-22T15:46:59;5.60;71.69
64997;SHT31;51545;51.568;6.998;2023-11-22T15:49:34;5.57;70.52
64997;SHT31;51545;51.568;6.998;2023-11-22T15:52:00;5.61;70.91
64997;SHT31;51545;51.568;6.998;2023-11-22T15:54:30;5.61;71.65
64997;SHT31;51545;51.568;6.998;2023-11-22T15:56:56;5.57;72.91
64997;SHT31;51545;51.568;6.998;2023-11-22T15:59:22;5.57;72.28